sensor_id;sensor_type;location;lat;lon;timestamp;temperature;humidity
10566;DHT22;5331;48.148;16.326;2023-12-28T00:00:59;2.80;1.00
10566;DHT22;5331;48.148;16.326;2023-12-28T00:18:55;2.70;1.00
10566;DHT22;5331;48.148;16.326;2023-12-28T00:21:21;2.70;1.00
10566;DHT22;5331;48.148;16.326;2023-12-28T00:23:48;2.60;1.00
10566;DHT22;5331;48.148;16.326;2023-12-28T00:26:14;2.50;1.00
10566;DHT22;5331;48.148;16.326;2023-12-28T00:28:40;2.50;1.00
10566;DHT22;5331;48.148;16.326;2023-12-28T00:31:06;2.40;1.00
10566;DHT22;5331;48.148;16.326;2023-12-28T00:33:32;2.40;1.00
10566;DHT22;5331;48.148;16.326;2023-12-28T00:53:29;2.30;1.00
10566;DHT22;5331;48.148;16.326;2023-12-28T00:55:56;2.30;1.00
10566;DHT22;5331;48.148;16.326;2023-12-28T00:58:22;2.20;1.00
10566;DHT22;5331;48.148;16.326;2023-12-28T01:00:49;2.10;1.00
10566;DHT22;5331;48.148;16.326;2023-12-28T01:03:18;2.10;1.00
10566;DHT22;5331;48.148;16.326;2023-12-28T01:05:45;2.10;1.00
10566;DHT22;5331;48.148;16.326;2023-12-28T01:08:13;2.10;1.00
10566;DHT22;5331;48.148;16.326;2023-12-28T01:28:06;1.90;1.00
10566;DHT22;5331;48.148;16.326;2023-12-28T01:30:32;1.90;1.00
10566;DHT22;5331;48.148;16.326;2023-12-28T01:32:59;1.90;1.00
10566;DHT22;5331;48.148;16.326;2023-12-28T01:35:25;1.80;1.00
10566;DHT22;5331;48.148;16.326;2023-12-28T01:37:52;1.80;1.00
10566;DHT22;5331;48.148;16.326;2023-12-28T01:40:18;1.80;1.00
10566;DHT22;5331;48.148;16.326;2023-12-28T01:42:45;1.80;1.00
10566;DHT22;5331;48.148;16.326;2023-12-28T02:02:56;2.30;1.00
10566;DHT22;5331;48.148;16.326;2023-12-28T02:05:22;2.40;1.00
10566;DHT22;5331;48.148;16.326;2023-12-28T02:07:49;2.40;1.00
10566;DHT22;5331;48.148;16.326;2023-12-28T02:10:15;2.50;1.00
10566;DHT22;5331;48.148;16.326;2023-12-28T02:12:41;2.50;1.00
10566;DHT22;5331;48.148;16.326;2023-12-28T02:15:08;2.60;1.00
10566;DHT22;5331;48.148;16.326;2023-12-28T02:17:37;2.70;1.00
10566;DHT22;5331;48.148;16.326;2023-12-28T02:34:08;3.00;1.00
10566;DHT22;5331;48.148;16.326;2023-12-28T02:36:36;3.00;1.00
10566;DHT22;5331;48.148;16.326;2023-12-28T02:39:04;3.00;1.00
10566;DHT22;5331;48.148;16.326;2023-12-28T02:41:31;3.10;1.00
10566;DHT22;5331;48.148;16.326;2023-12-28T02:43:59;3.10;1.00
10566;DHT22;5331;48.148;16.326;2023-12-28T02:46:25;3.10;1.00
10566;DHT22;5331;48.148;16.326;2023-12-28T02:48:52;3.10;1.00
10566;DHT22;5331;48.148;16.326;2023-12-28T03:05:56;3.40;1.00
10566;DHT22;5331;48.148;16.326;2023-12-28T03:08:22;3.50;1.00
10566;DHT22;5331;48.148;16.326;2023-12-28T03:10:49;3.50;1.00
10566;DHT22;5331;48.148;16.326;2023-12-28T03:13:15;3.50;1.00
10566;DHT22;5331;48.148;16.326;2023-12-28T03:15:41;3.50;1.00
10566;DHT22;5331;48.148;16.326;2023-12-28T03:18:07;3.60;1.00
10566;DHT22;5331;48.148;16.326;2023-12-28T03:20:33;3.60;1.00
10566;DHT22;5331;48.148;16.326;2023-12-28T03:40:46;4.00;1.00
10566;DHT22;5331;48.148;16.326;2023-12-28T03:43:14;3.90;1.00
10566;DHT22;5331;48.148;16.326;2023-12-28T03:45:41;3.90;1.00
10566;DHT22;5331;48.148;16.326;2023-12-28T03:48:07;3.90;1.00
10566;DHT22;5331;48.148;16.326;2023-12-28T03:50:34;3.90;1.00
10566;DHT22;5331;48.148;16.326;2023-12-28T03:53:00;3.90;1.00
10566;DHT22;5331;48.148;16.326;2023-12-28T03:55:27;4.00;1.00
10566;DHT22;5331;48.148;16.326;2023-12-28T03:57:53;3.90;1.00
10566;DHT22;5331;48.148;16.326;2023-12-28T04:17:59;4.00;1.00
10566;DHT22;5331;48.148;16.326;2023-12-28T04:20:25;3.90;1.00
10566;DHT22;5331;48.148;16.326;2023-12-28T04:22:51;4.00;1.00
10566;DHT22;5331;48.148;16.326;2023-12-28T04:25:17;4.00;1.00
10566;DHT22;5331;48.148;16.326;2023-12-28T04:27:43;4.00;1.00
10566;DHT22;5331;48.148;16.326;2023-12-28T04:30:12;4.00;1.00
10566;DHT22;5331;48.148;16.326;2023-12-28T04:32:38;4.00;1.00
10566;DHT22;5331;48.148;16.326;2023-12-28T04:52:55;3.90;1.00
10566;DHT22;5331;48.148;16.326;2023-12-28T04:55:22;3.90;1.00
10566;DHT22;5331;48.148;16.326;2023-12-28T04:57:49;4.00;1.00
10566;DHT22;5331;48.148;16.326;2023-12-28T05:00:16;4.00;1.00
10566;DHT22;5331;48.148;16.326;2023-12-28T05:02:42;4.00;1.00
10566;DHT22;5331;48.148;16.326;2023-12-28T05:05:11;4.00;1.00
10566;DHT22;5331;48.148;16.326;2023-12-28T05:07:38;3.90;1.00
10566;DHT22;5331;48.148;16.326;2023-12-28T05:25:28;3.90;1.00
10566;DHT22;5331;48.148;16.326;2023-12-28T05:27:54;3.90;1.00
10566;DHT22;5331;48.148;16.326;2023-12-28T05:30:20;3.80;1.00
10566;DHT22;5331;48.148;16.326;2023-12-28T05:32:47;3.80;1.00
10566;DHT22;5331;48.148;16.326;2023-12-28T05:35:13;3.80;1.00
10566;DHT22;5331;48.148;16.326;2023-12-28T05:37:39;3.80;1.00
10566;DHT22;5331;48.148;16.326;2023-12-28T05:40:06;3.80;1.00
10566;DHT22;5331;48.148;16.326;2023-12-28T06:00:04;4.00;1.00
10566;DHT22;5331;48.148;16.326;2023-12-28T06:02:31;4.00;1.00
10566;DHT22;5331;48.148;16.326;2023-12-28T06:04:58;4.00;1.00
10566;DHT22;5331;48.148;16.326;2023-12-28T06:07:24;4.00;1.00
10566;DHT22;5331;48.148;16.326;2023-12-28T06:09:51;4.00;1.00
10566;DHT22;5331;48.148;16.326;2023-12-28T06:12:17;4.00;1.00
10566;DHT22;5331;48.148;16.326;2023-12-28T06:14:43;4.00;1.00
10566;DHT22;5331;48.148;16.326;2023-12-28T06:17:10;3.90;1.00
10566;DHT22;5331;48.148;16.326;2023-12-28T06:35:06;4.10;1.00
10566;DHT22;5331;48.148;16.326;2023-12-28T06:37:32;4.10;1.00
10566;DHT22;5331;48.148;16.326;2023-12-28T06:39:58;4.00;1.00
10566;DHT22;5331;48.148;16.326;2023-12-28T06:42:24;4.00;1.00
10566;DHT22;5331;48.148;16.326;2023-12-28T06:44:51;4.00;1.00
10566;DHT22;5331;48.148;16.326;2023-12-28T06:47:17;4.00;1.00
10566;DHT22;5331;48.148;16.326;2023-12-28T06:49:43;4.00;1.00
10566;DHT22;5331;48.148;16.326;2023-12-28T07:07:35;3.70;1.00
10566;DHT22;5331;48.148;16.326;2023-12-28T07:10:03;3.60;1.00
10566;DHT22;5331;48.148;16.326;2023-12-28T07:12:29;3.60;1.00
10566;DHT22;5331;48.148;16.326;2023-12-28T07:14:55;3.50;1.00
10566;DHT22;5331;48.148;16.326;2023-12-28T07:17:22;3.50;1.00
10566;DHT22;5331;48.148;16.326;2023-12-28T07:19:48;3.50;1.00
10566;DHT22;5331;48.148;16.326;2023-12-28T07:22:14;3.60;1.00
10566;DHT22;5331;48.148;16.326;2023-12-28T07:42:04;3.70;1.00
10566;DHT22;5331;48.148;16.326;2023-12-28T07:44:31;3.70;1.00
10566;DHT22;5331;48.148;16.326;2023-12-28T07:46:57;3.70;1.00
10566;DHT22;5331;48.148;16.326;2023-12-28T07:49:23;3.70;1.00
10566;DHT22;5331;48.148;16.326;2023-12-28T07:51:49;3.70;1.00
10566;DHT22;5331;48.148;16.326;2023-12-28T07:54:16;3.70;1.00
10566;DHT22;5331;48.148;16.326;2023-12-28T07:56:42;3.70;1.00
10566;DHT22;5331;48.148;16.326;2023-12-28T08:16:55;3.80;1.00
10566;DHT22;5331;48.148;16.326;2023-12-28T08:19:21;3.80;1.00
10566;DHT22;5331;48.148;16.326;2023-12-28T08:21:47;3.90;1.00
10566;DHT22;5331;48.148;16.326;2023-12-28T08:24:14;4.00;1.00
10566;DHT22;5331;48.148;16.326;2023-12-28T08:26:40;3.90;1.00
10566;DHT22;5331;48.148;16.326;2023-12-28T08:29:06;3.90;1.00
10566;DHT22;5331;48.148;16.326;2023-12-28T08:31:33;3.90;1.00
10566;DHT22;5331;48.148;16.326;2023-12-28T08:51:01;3.90;1.00
10566;DHT22;5331;48.148;16.326;2023-12-28T08:53:27;4.00;1.00
10566;DHT22;5331;48.148;16.326;2023-12-28T08:55:53;4.00;1.00
10566;DHT22;5331;48.148;16.326;2023-12-28T08:58:19;4.10;1.00
10566;DHT22;5331;48.148;16.326;2023-12-28T09:00:46;4.10;1.00
10566;DHT22;5331;48.148;16.326;2023-12-28T09:03:13;4.00;1.00
10566;DHT22;5331;48.148;16.326;2023-12-28T09:05:39;4.00;1.00
10566;DHT22;5331;48.148;16.326;2023-12-28T09:27:37;4.10;1.00
10566;DHT22;5331;48.148;16.326;2023-12-28T09:30:04;4.00;1.00
10566;DHT22;5331;48.148;16.326;2023-12-28T09:32:31;4.00;1.00
10566;DHT22;5331;48.148;16.326;2023-12-28T09:34:57;4.10;1.00
10566;DHT22;5331;48.148;16.326;2023-12-28T09:37:23;4.10;1.00
10566;DHT22;5331;48.148;16.326;2023-12-28T09:39:49;4.00;1.00
10566;DHT22;5331;48.148;16.326;2023-12-28T09:42:21;4.00;1.00
10566;DHT22;5331;48.148;16.326;2023-12-28T10:00:19;4.20;1.00
10566;DHT22;5331;48.148;16.326;2023-12-28T10:02:45;4.20;1.00
10566;DHT22;5331;48.148;16.326;2023-12-28T10:05:12;4.20;1.00
10566;DHT22;5331;48.148;16.326;2023-12-28T10:07:43;4.20;1.00
10566;DHT22;5331;48.148;16.326;2023-12-28T10:10:10;4.20;1.00
10566;DHT22;5331;48.148;16.326;2023-12-28T10:12:36;4.30;1.00
10566;DHT22;5331;48.148;16.326;2023-12-28T10:15:03;4.20;1.00
10566;DHT22;5331;48.148;16.326;2023-12-28T10:17:32;4.20;1.00
10566;DHT22;5331;48.148;16.326;2023-12-28T10:35:25;4.20;1.00
10566;DHT22;5331;48.148;16.326;2023-12-28T10:37:52;4.20;1.00
10566;DHT22;5331;48.148;16.326;2023-12-28T10:40:21;4.10;1.00
10566;DHT22;5331;48.148;16.326;2023-12-28T10:42:51;4.00;1.00
10566;DHT22;5331;48.148;16.326;2023-12-28T10:45:18;4.00;1.00
10566;DHT22;5331;48.148;16.326;2023-12-28T10:47:54;4.00;1.00
10566;DHT22;5331;48.148;16.326;2023-12-28T10:50:23;4.00;1.00
10566;DHT22;5331;48.148;16.326;2023-12-28T10:52:56;4.10;1.00
10566;DHT22;5331;48.148;16.326;2023-12-28T11:10:51;4.00;1.00
10566;DHT22;5331;48.148;16.326;2023-12-28T11:13:19;4.00;1.00
10566;DHT22;5331;48.148;16.326;2023-12-28T11:15:47;4.00;1.00
10566;DHT22;5331;48.148;16.326;2023-12-28T11:18:15;4.10;1.00
10566;DHT22;5331;48.148;16.326;2023-12-28T11:20:41;4.10;1.00
10566;DHT22;5331;48.148;16.326;2023-12-28T11:23:08;4.10;1.00
10566;DHT22;5331;48.148;16.326;2023-12-28T11:25:35;4.10;1.00
10566;DHT22;5331;48.148;16.326;2023-12-28T11:43:28;4.10;1.00
10566;DHT22;5331;48.148;16.326;2023-12-28T11:46:00;4.10;1.00
10566;DHT22;5331;48.148;16.326;2023-12-28T11:48:27;4.10;1.00
10566;DHT22;5331;48.148;16.326;2023-12-28T11:50:55;4.00;1.00
10566;DHT22;5331;48.148;16.326;2023-12-28T11:53:22;4.10;1.00
10566;DHT22;5331;48.148;16.326;2023-12-28T11:55:49;4.20;1.00
10566;DHT22;5331;48.148;16.326;2023-12-28T11:58:16;4.10;1.00
10566;DHT22;5331;48.148;16.326;2023-12-28T12:16:06;4.10;1.00
10566;DHT22;5331;48.148;16.326;2023-12-28T12:18:33;3.90;1.00
10566;DHT22;5331;48.148;16.326;2023-12-28T12:20:59;3.80;1.00
10566;DHT22;5331;48.148;16.326;2023-12-28T12:23:25;3.80;1.00
10566;DHT22;5331;48.148;16.326;2023-12-28T12:25:52;3.80;1.00
10566;DHT22;5331;48.148;16.326;2023-12-28T12:28:18;3.70;1.00
10566;DHT22;5331;48.148;16.326;2023-12-28T12:30:50;3.70;1.00
10566;DHT22;5331;48.148;16.326;2023-12-28T12:33:17;3.70;1.00
10566;DHT22;5331;48.148;16.326;2023-12-28T12:51:11;3.70;1.00
10566;DHT22;5331;48.148;16.326;2023-12-28T12:53:37;3.60;1.00
10566;DHT22;5331;48.148;16.326;2023-12-28T12:56:04;3.70;1.00
10566;DHT22;5331;48.148;16.326;2023-12-28T12:58:30;3.60;1.00
10566;DHT22;5331;48.148;16.326;2023-12-28T13:00:57;3.70;1.00
10566;DHT22;5331;48.148;16.326;2023-12-28T13:03:27;3.50;1.00
10566;DHT22;5331;48.148;16.326;2023-12-28T13:05:54;3.40;1.00
10566;DHT22;5331;48.148;16.326;2023-12-28T13:21:25;3.40;1.00
10566;DHT22;5331;48.148;16.326;2023-12-28T13:23:51;3.50;1.00
10566;DHT22;5331;48.148;16.326;2023-12-28T13:26:17;3.60;1.00
10566;DHT22;5331;48.148;16.326;2023-12-28T13:28:43;3.70;1.00
10566;DHT22;5331;48.148;16.326;2023-12-28T13:31:10;3.80;1.00
10566;DHT22;5331;48.148;16.326;2023-12-28T13:33:36;3.70;1.00
10566;DHT22;5331;48.148;16.326;2023-12-28T13:36:02;3.70;1.00
10566;DHT22;5331;48.148;16.326;2023-12-28T13:38:29;3.70;1.00
10566;DHT22;5331;48.148;16.326;2023-12-28T13:56:25;3.80;1.00
10566;DHT22;5331;48.148;16.326;2023-12-28T13:58:51;3.90;1.00
10566;DHT22;5331;48.148;16.326;2023-12-28T14:01:18;3.90;1.00
10566;DHT22;5331;48.148;16.326;2023-12-28T14:03:44;4.00;1.00
10566;DHT22;5331;48.148;16.326;2023-12-28T14:06:13;3.90;1.00
10566;DHT22;5331;48.148;16.326;2023-12-28T14:08:40;3.90;1.00
10566;DHT22;5331;48.148;16.326;2023-12-28T14:11:06;3.90;1.00
10566;DHT22;5331;48.148;16.326;2023-12-28T14:13:33;3.90;1.00
10566;DHT22;5331;48.148;16.326;2023-12-28T14:31:29;4.00;1.00
10566;DHT22;5331;48.148;16.326;2023-12-28T14:33:56;4.00;1.00
10566;DHT22;5331;48.148;16.326;2023-12-28T14:36:27;3.90;1.00
10566;DHT22;5331;48.148;16.326;2023-12-28T14:38:57;3.90;1.00
10566;DHT22;5331;48.148;16.326;2023-12-28T14:41:23;3.80;1.00
10566;DHT22;5331;48.148;16.326;2023-12-28T14:43:49;3.80;1.00
10566;DHT22;5331;48.148;16.326;2023-12-28T14:46:15;3.70;1.00
10566;DHT22;5331;48.148;16.326;2023-12-28T15:06:05;3.60;1.00
10566;DHT22;5331;48.148;16.326;2023-12-28T15:08:31;3.60;1.00
10566;DHT22;5331;48.148;16.326;2023-12-28T15:10:58;3.70;1.00
10566;DHT22;5331;48.148;16.326;2023-12-28T15:13:25;3.60;1.00
10566;DHT22;5331;48.148;16.326;2023-12-28T15:15:52;3.60;1.00
10566;DHT22;5331;48.148;16.326;2023-12-28T15:18:19;3.50;1.00
10566;DHT22;5331;48.148;16.326;2023-12-28T15:20:46;3.50;1.00
10566;DHT22;5331;48.148;16.326;2023-12-28T15:38:39;3.40;1.00
10566;DHT22;5331;48.148;16.326;2023-12-28T15:41:06;3.40;1.00
10566;DHT22;5331;48.148;16.326;2023-12-28T15:43:32;3.40;1.00
10566;DHT22;5331;48.148;16.326;2023-12-28T15:45:59;3.50;1.00
10566;DHT22;5331;48.148;16.326;2023-12-28T15:48:25;3.40;1.00
10566;DHT22;5331;48.148;16.326;2023-12-28T15:50:51;3.30;1.00
10566;DHT22;5331;48.148;16.326;2023-12-28T15:53:18;3.30;1.00
10566;DHT22;5331;48.148;16.326;2023-12-28T16:13:03;3.30;1.00
10566;DHT22;5331;48.148;16.326;2023-12-28T16:15:30;3.20;1.00
10566;DHT22;5331;48.148;16.326;2023-12-28T16:17:57;3.20;1.00
10566;DHT22;5331;48.148;16.326;2023-12-28T16:20:24;3.10;1.00
10566;DHT22;5331;48.148;16.326;2023-12-28T16:22:51;3.10;1.00
10566;DHT22;5331;48.148;16.326;2023-12-28T16:25:17;3.00;1.00
10566;DHT22;5331;48.148;16.326;2023-12-28T16:27:43;3.00;1.00
10566;DHT22;5331;48.148;16.326;2023-12-28T16:47:57;3.00;1.00
10566;DHT22;5331;48.148;16.326;2023-12-28T16:50:23;2.90;1.00
10566;DHT22;5331;48.148;16.326;2023-12-28T16:52:51;3.00;1.00
10566;DHT22;5331;48.148;16.326;2023-12-28T16:55:17;3.00;1.00
10566;DHT22;5331;48.148;16.326;2023-12-28T16:57:44;3.00;1.00
10566;DHT22;5331;48.148;16.326;2023-12-28T17:00:11;3.00;1.00
10566;DHT22;5331;48.148;16.326;2023-12-28T17:02:37;3.10;1.00
10566;DHT22;5331;48.148;16.326;2023-12-28T17:05:06;3.00;1.00
10566;DHT22;5331;48.148;16.326;2023-12-28T17:23:30;2.90;1.00
10566;DHT22;5331;48.148;16.326;2023-12-28T17:26:03;3.00;1.00
10566;DHT22;5331;48.148;16.326;2023-12-28T17:28:35;2.90;1.00
10566;DHT22;5331;48.148;16.326;2023-12-28T17:31:04;2.90;1.00
10566;DHT22;5331;48.148;16.326;2023-12-28T17:33:33;2.90;1.00
10566;DHT22;5331;48.148;16.326;2023-12-28T17:36:00;2.80;1.00
10566;DHT22;5331;48.148;16.326;2023-12-28T17:38:28;2.80;1.00
10566;DHT22;5331;48.148;16.326;2023-12-28T17:56:23;2.90;1.00
10566;DHT22;5331;48.148;16.326;2023-12-28T17:58:50;2.90;1.00
10566;DHT22;5331;48.148;16.326;2023-12-28T18:01:16;2.90;1.00
10566;DHT22;5331;48.148;16.326;2023-12-28T18:03:43;2.90;1.00
10566;DHT22;5331;48.148;16.326;2023-12-28T18:06:10;2.90;1.00
10566;DHT22;5331;48.148;16.326;2023-12-28T18:08:37;2.80;1.00
10566;DHT22;5331;48.148;16.326;2023-12-28T18:11:03;2.80;1.00
10566;DHT22;5331;48.148;16.326;2023-12-28T18:13:30;2.80;1.00
10566;DHT22;5331;48.148;16.326;2023-12-28T18:31:23;3.10;1.00
10566;DHT22;5331;48.148;16.326;2023-12-28T18:33:49;3.00;1.00
10566;DHT22;5331;48.148;16.326;2023-12-28T18:36:15;3.00;1.00
10566;DHT22;5331;48.148;16.326;2023-12-28T18:38:43;3.00;1.00
10566;DHT22;5331;48.148;16.326;2023-12-28T18:41:11;3.00;1.00
10566;DHT22;5331;48.148;16.326;2023-12-28T18:43:37;3.00;1.00
10566;DHT22;5331;48.148;16.326;2023-12-28T18:46:04;3.00;1.00
10566;DHT22;5331;48.148;16.326;2023-12-28T19:03:59;2.90;1.00
10566;DHT22;5331;48.148;16.326;2023-12-28T19:06:26;2.80;1.00
10566;DHT22;5331;48.148;16.326;2023-12-28T19:08:53;2.80;1.00
10566;DHT22;5331;48.148;16.326;2023-12-28T19:11:20;2.80;1.00
10566;DHT22;5331;48.148;16.326;2023-12-28T19:13:47;2.70;1.00
10566;DHT22;5331;48.148;16.326;2023-12-28T19:16:19;2.70;1.00
10566;DHT22;5331;48.148;16.326;2023-12-28T19:37:55;2.60;1.00
10566;DHT22;5331;48.148;16.326;2023-12-28T19:40:23;2.50;1.00
10566;DHT22;5331;48.148;16.326;2023-12-28T19:42:51;2.50;1.00
10566;DHT22;5331;48.148;16.326;2023-12-28T19:45:19;2.40;1.00
10566;DHT22;5331;48.148;16.326;2023-12-28T19:47:46;2.40;1.00
10566;DHT22;5331;48.148;16.326;2023-12-28T19:50:14;2.40;1.00
10566;DHT22;5331;48.148;16.326;2023-12-28T19:52:42;2.30;1.00
10566;DHT22;5331;48.148;16.326;2023-12-28T19:55:10;2.40;1.00
10566;DHT22;5331;48.148;16.326;2023-12-28T20:13:06;2.20;1.00
10566;DHT22;5331;48.148;16.326;2023-12-28T20:18:00;2.20;1.00
10566;DHT22;5331;48.148;16.326;2023-12-28T20:20:27;2.10;1.00
10566;DHT22;5331;48.148;16.326;2023-12-28T20:22:54;2.10;1.00
10566;DHT22;5331;48.148;16.326;2023-12-28T20:25:21;2.00;1.00
10566;DHT22;5331;48.148;16.326;2023-12-28T20:27:49;2.00;1.00
10566;DHT22;5331;48.148;16.326;2023-12-28T20:45:46;2.20;1.00
10566;DHT22;5331;48.148;16.326;2023-12-28T20:48:15;2.10;1.00
10566;DHT22;5331;48.148;16.326;2023-12-28T20:50:43;2.10;1.00
10566;DHT22;5331;48.148;16.326;2023-12-28T20:53:11;2.10;1.00
10566;DHT22;5331;48.148;16.326;2023-12-28T20:55:39;2.00;1.00
10566;DHT22;5331;48.148;16.326;2023-12-28T20:58:07;2.00;1.00
10566;DHT22;5331;48.148;16.326;2023-12-28T21:00:34;2.00;1.00
10566;DHT22;5331;48.148;16.326;2023-12-28T21:18:33;2.40;1.00
10566;DHT22;5331;48.148;16.326;2023-12-28T21:20:59;2.20;1.00
10566;DHT22;5331;48.148;16.326;2023-12-28T21:23:26;2.20;1.00
10566;DHT22;5331;48.148;16.326;2023-12-28T21:25:52;2.10;1.00
10566;DHT22;5331;48.148;16.326;2023-12-28T21:28:18;2.10;1.00
10566;DHT22;5331;48.148;16.326;2023-12-28T21:30:44;2.10;1.00
10566;DHT22;5331;48.148;16.326;2023-12-28T21:33:11;2.10;1.00
10566;DHT22;5331;48.148;16.326;2023-12-28T21:51:05;2.40;1.00
10566;DHT22;5331;48.148;16.326;2023-12-28T21:53:31;2.20;1.00
10566;DHT22;5331;48.148;16.326;2023-12-28T21:58:24;2.10;1.00
10566;DHT22;5331;48.148;16.326;2023-12-28T22:00:51;2.10;1.00
10566;DHT22;5331;48.148;16.326;2023-12-28T22:03:17;2.00;1.00
10566;DHT22;5331;48.148;16.326;2023-12-28T22:05:43;2.00;1.00
10566;DHT22;5331;48.148;16.326;2023-12-28T22:21:14;2.30;1.00
10566;DHT22;5331;48.148;16.326;2023-12-28T22:23:42;2.20;1.00
10566;DHT22;5331;48.148;16.326;2023-12-28T22:26:09;2.20;1.00
10566;DHT22;5331;48.148;16.326;2023-12-28T22:28:36;2.20;1.00
10566;DHT22;5331;48.148;16.326;2023-12-28T22:31:03;2.20;1.00
10566;DHT22;5331;48.148;16.326;2023-12-28T22:33:29;2.20;1.00
10566;DHT22;5331;48.148;16.326;2023-12-28T22:35:55;2.10;1.00
10566;DHT22;5331;48.148;16.326;2023-12-28T22:53:51;2.30;1.00
10566;DHT22;5331;48.148;16.326;2023-12-28T22:56:17;2.40;1.00
10566;DHT22;5331;48.148;16.326;2023-12-28T22:58:44;2.40;1.00
10566;DHT22;5331;48.148;16.326;2023-12-28T23:01:10;2.40;1.00
10566;DHT22;5331;48.148;16.326;2023-12-28T23:03:36;2.30;1.00
10566;DHT22;5331;48.148;16.326;2023-12-28T23:06:03;2.30;1.00
10566;DHT22;5331;48.148;16.326;2023-12-28T23:08:29;2.30;1.00
10566;DHT22;5331;48.148;16.326;2023-12-28T23:26:24;2.60;1.00
10566;DHT22;5331;48.148;16.326;2023-12-28T23:28:50;2.50;1.00
10566;DHT22;5331;48.148;16.326;2023-12-28T23:31:16;2.50;1.00
10566;DHT22;5331;48.148;16.326;2023-12-28T23:33:49;2.50;1.00
10566;DHT22;5331;48.148;16.326;2023-12-28T23:36:15;2.50;1.00
10566;DHT22;5331;48.148;16.326;2023-12-28T23:38:42;2.50;1.00
10566;DHT22;5331;48.148;16.326;2023-12-28T23:41:08;2.50;1.00
10566;DHT22;5331;48.148;16.326;2023-12-28T23:43:35;2.50;1.00
